Date,TemperatureHighF,TemperatureAvgF,TemperatureLowF,DewpointHighF,DewpointAvgF,DewpointLowF,HumidityHigh,HumidityAvg,HumidityLow,PressureMaxIn,PressureMinIn,WindSpeedMaxMPH,WindSpeedAvgMPH,GustSpeedMaxMPH,PrecipitationSumIn
2013-1-1,36.0,23.8,12.0,15.1,6.2,-7.6,68,48,20,29.39,29.31,17,5,17,0.00
2013-1-2,31.3,17.5,7.5,-1.1,-7.3,-13.0,48,34,18,29.42,29.28,13,4,13,0.00
2013-1-3,31.6,24.5,15.1,15.8,8.4,-1.5,67,50,38,29.39,29.25,16,5,16,0.00
2013-1-4,37.8,24.3,12.7,14.0,7.3,-2.0,67,50,19,29.39,29.31,25,7,25,0.00
2013-1-5,38.7,29.1,19.8,32.2,18.8,8.2,98,68,32,29.39,29.16,17,5,17,0.00
2013-1-6,34.9,29.8,21.9,27.9,16.3,9.0,78,57,40,29.48,29.10,21,6,21,0.00
2013-1-7,39.9,27.2,16.3,16.2,12.0,-4.0,85,57,16,29.51,29.31,21,6,21,0.00
2013-1-8,42.6,32.9,25.9,21.6,17.8,14.2,74,55,32,29.34,29.25,14,5,14,0.00
2013-1-9,52.2,40.3,25.0,24.8,12.6,-3.8,64,36,13,29.66,29.22,26,6,26,0.00
2013-1-10,41.5,33.7,21.9,39.4,19.1,7.3,98,58,30,29.66,29.13,18,5,19,0.00
2013-1-11,53.4,49.5,40.3,52.0,45.5,37.9,98,86,57,29.13,28.92,21,7,21,0.00
2013-1-12,58.1,47.6,34.2,43.5,33.8,19.8,87,61,33,29.13,28.95,19,6,19,0.00
2013-1-13,34.9,27.3,12.7,34.2,21.9,-0.8,98,81,54,29.39,29.01,19,6,19,0.00
2013-1-14,31.3,16.8,9.7,10.8,1.3,-7.4,75,51,20,29.57,29.39,11,3,11,0.00
2013-1-15,34.0,21.0,9.5,18.0,6.4,-3.8,82,56,20,29.54,29.25,9,2,9,0.00
2013-1-16,37.9,27.7,14.2,17.8,10.5,-4.7,83,53,19,29.25,29.01,23,5,23,0.00
2013-1-17,33.6,28.0,16.9,24.4,3.7,-11.0,71,37,18,29.54,29.22,23,6,23,0.00
2013-1-18,41.5,29.0,14.5,16.2,9.0,-0.2,73,44,21,29.57,29.16,29,8,29,0.00
2013-1-19,50.0,41.9,33.6,26.4,18.7,-4.5,50,40,16,29.16,28.95,37,10,37,0.00
2013-1-20,33.6,19.8,13.6,-6.0,-12.9,-17.7,36,23,16,29.48,29.07,38,8,38,0.00
2013-1-21,16.0,10.4,3.4,-6.0,-18.3,-29.7,37,26,19,29.39,29.22,22,8,22,0.00
2013-1-22,15.3,6.5,-0.8,-19.5,-27.0,-33.0,19,19,19,29.45,29.39,18,5,18,0.00
2013-1-23,20.3,15.1,8.1,7.5,-12.1,-25.6,63,30,19,29.45,29.22,24,6,24,0.00
2013-1-24,27.0,18.0,12.6,10.2,-4.3,-16.4,75,41,16,29.72,29.42,17,-573,23,0.00
2013-1-25,27.0,22.1,16.7,10.9,4.4,-2.2,70,46,32,29.54,29.13,0,-999,0,0.00
2013-1-26,40.3,24.2,16.2,10.0,3.2,-6.9,60,43,16,29.60,29.31,0,-999,0,0.00
2013-1-27,35.1,27.6,20.8,34.5,15.6,7.0,98,62,42,29.60,29.22,0,-999,0,0.00
2013-1-28,49.8,44.2,35.1,49.3,43.7,34.5,98,98,98,29.22,29.04,0,-999,0,0.00
2013-1-29,59.4,56.0,45.7,57.9,54.7,44.8,98,95,78,29.07,28.60,0,-999,0,0.00
2013-1-30,53.1,37.8,22.5,52.3,33.2,8.2,98,84,52,28.77,28.39,0,-999,0,0.00
2013-1-31,22.3,15.2,5.5,11.8,-1.2,-11.6,67,48,35,29.28,28.77,0,-999,0,0.00
2013-2-1,18.0,9.3,0.7,6.8,-10.2,-18.6,69,41,21,29.45,29.28,0,-999,0,0.00
2013-2-2,28.6,19.3,11.1,16.7,10.3,-1.8,84,68,53,29.36,29.16,0,-999,0,0.00
2013-2-3,31.1,17.5,8.8,11.8,0.4,-9.8,71,48,18,29.28,29.16,0,-999,0,0.00
2013-2-4,31.3,22.2,19.8,18.0,15.3,11.1,87,75,46,29.28,28.98,0,-999,0,0.00
2013-2-7,46.8,37.8,32.4,32.7,28.2,20.7,98,72,38,29.10,29.01,17,-20,17,0.00
2013-2-8,34.2,29.9,27.3,32.4,23.2,14.2,98,77,45,29.51,29.04,27,5,27,0.00
2013-2-9,40.3,31.9,27.0,21.0,16.4,10.0,77,54,31,29.57,29.31,14,-9,14,0.00
2013-2-10,49.6,39.6,30.7,47.3,31.2,14.9,98,73,48,29.31,28.77,25,8,25,0.00
2013-2-11,48.6,34.5,29.3,31.3,14.1,10.2,51,43,39,29.22,28.80,31,11,31,0.00
2013-2-12,33.1,26.6,16.2,13.5,11.0,6.1,75,52,39,29.28,29.13,20,5,20,0.00
2013-2-13,49.3,32.8,16.2,25.3,17.2,7.2,91,58,19,29.13,28.89,15,3,15,0.00
2013-2-14,44.6,36.1,30.7,26.6,18.5,6.8,75,50,30,29.16,28.86,26,6,26,0.00
2013-2-15,33.8,28.3,22.5,22.8,5.6,-11.4,78,40,18,29.34,29.16,18,4,18,0.00
2013-2-16,23.4,17.8,12.0,13.3,-4.3,-17.0,68,39,17,29.36,29.31,20,6,20,0.00
2013-2-17,35.2,22.1,8.6,4.3,-7.0,-14.6,45,30,15,29.42,29.31,14,4,14,0.00
2013-2-18,56.8,40.0,24.4,42.6,21.4,0.0,93,50,26,29.31,28.71,32,10,35,0.00
2013-2-19,33.6,17.2,12.0,30.2,1.9,-5.6,88,51,39,29.28,28.80,29,10,29,0.00
2013-2-20,28.9,17.6,9.3,9.1,-1.8,-11.0,56,43,18,29.48,29.28,17,5,17,0.00
2013-2-21,29.1,25.4,22.3,17.1,10.8,7.0,80,54,42,29.54,29.16,21,5,21,0.00
2013-2-22,34.2,27.9,21.7,30.9,20.5,12.4,89,75,50,29.19,28.98,20,6,20,0.00
2013-2-23,34.0,26.8,23.5,15.8,9.9,2.8,64,50,30,29.16,29.10,16,4,16,0.00
2013-2-24,52.7,30.6,15.8,12.9,6.8,-2.2,79,44,13,29.36,29.16,10,-6,11,0.00
2013-2-25,48.0,33.5,19.0,20.7,12.1,0.1,81,46,14,29.39,29.16,15,3,15,0.00
2013-2-26,33.8,32.8,31.5,32.5,23.8,12.0,98,72,40,29.16,28.66,29,5,29,0.00
2013-2-27,36.1,33.2,32.0,34.7,31.6,29.8,98,94,79,28.86,28.69,11,-2,11,0.00
2013-2-28,37.6,32.8,29.7,33.6,27.9,17.4,98,83,57,29.19,28.83,27,7,27,0.00
2013-3-1,37.8,30.6,27.0,25.9,16.4,8.8,88,57,31,29.31,29.16,16,3,16,0.00
2013-3-2,33.3,27.2,24.6,18.7,11.0,5.9,68,50,40,29.34,29.28,17,4,17,0.00
2013-3-3,38.5,25.7,12.6,9.1,1.7,-7.2,67,39,16,29.31,29.28,16,4,16,0.00
2013-3-4,40.1,27.5,10.9,25.2,7.8,-1.5,80,47,18,29.34,29.16,13,2,13,0.00
2013-3-5,33.6,30.5,27.5,27.1,24.2,16.7,93,78,51,29.19,28.95,15,4,15,0.00
2013-3-6,36.7,31.7,28.2,24.8,21.6,18.5,83,66,50,29.45,29.13,21,7,21,0.00
2013-3-7,52.2,35.2,24.8,24.3,13.0,-1.3,78,45,14,29.60,29.45,10,2,10,0.00
2013-3-8,39.6,24.0,19.4,23.0,15.2,4.6,81,71,24,29.63,29.57,7,0,7,0.00
2013-3-15,55.8,43.5,35.6,37.8,29.7,13.8,98,65,20,29.10,28.92,7,-17,9,0.00
2013-3-16,36.7,33.0,29.3,36.1,25.6,12.2,98,77,48,29.28,28.86,18,4,18,0.00
2013-3-17,43.2,32.3,28.2,15.1,9.7,-2.2,54,40,16,29.36,29.16,16,4,16,0.00
2013-3-18,33.1,29.4,27.9,30.6,21.6,13.1,92,74,53,29.16,28.80,18,5,18,0.00
2013-4-4,65.5,55.3,44.2,8.6,4.5,-0.4,15,13,10,29.34,29.16,13,-15,13,0.00
2013-4-5,53.1,42.0,33.3,31.3,11.0,-2.7,82,33,13,29.36,29.16,17,4,17,0.00
2013-4-6,71.1,52.7,32.5,24.4,10.9,2.7,50,22,9,29.31,28.83,33,9,33,0.00
2013-4-7,68.2,53.2,43.2,39.2,24.7,6.8,65,38,10,29.10,28.83,31,5,33,0.00
2013-4-8,72.9,54.1,42.6,53.6,34.1,25.0,98,51,21,29.13,28.86,35,7,35,0.00
2013-4-9,81.1,55.2,41.0,45.7,38.1,28.6,98,57,20,29.16,28.95,20,4,21,0.00
2013-4-10,54.9,42.8,39.7,45.1,40.1,29.5,98,91,53,29.10,28.95,20,4,20,0.00
2013-4-11,51.6,45.7,41.4,51.1,45.0,40.8,98,97,92,29.04,28.77,17,5,17,0.00
2013-4-12,47.1,39.3,36.1,41.7,28.0,18.0,98,65,44,29.04,28.80,23,-1,23,0.00
2013-4-13,47.8,38.9,33.6,30.4,18.6,5.9,84,47,19,29.19,29.04,24,5,24,0.00
2013-4-14,70.2,52.4,38.5,36.9,25.6,18.7,52,37,20,29.22,28.95,23,6,23,0.00
2013-4-15,67.6,57.2,44.2,53.2,41.6,28.2,98,59,29,29.16,28.98,24,7,24,0.00
2013-4-16,57.6,47.1,40.8,44.1,26.9,11.5,98,51,17,29.42,29.16,11,3,11,0.00
2013-4-17,54.7,47.6,42.1,49.8,34.3,20.8,98,62,41,29.42,29.01,20,5,20,0.00
2013-4-18,69.1,58.1,43.7,63.0,53.5,29.8,98,86,53,29.01,28.71,29,7,29,0.00
2013-4-19,43.5,37.4,33.8,30.9,18.8,14.0,62,47,36,29.10,28.74,31,10,31,0.00
2013-4-20,52.9,39.1,29.7,20.3,5.7,-5.1,59,28,13,29.60,29.10,16,5,16,0.00
2013-4-21,56.7,42.5,28.0,17.2,6.5,-2.0,43,25,12,29.72,29.54,18,5,18,0.00
2013-4-22,72.0,54.2,35.4,23.0,13.8,5.7,58,25,9,29.54,29.28,17,4,17,0.00
2013-4-23,66.4,50.9,36.7,48.7,31.5,17.2,85,52,23,29.28,29.07,19,5,19,0.00
2013-4-24,56.7,41.7,35.4,32.4,18.5,1.8,84,46,12,29.34,29.10,22,5,22,0.00
2013-4-25,56.7,43.7,31.6,22.6,14.0,-0.0,55,34,12,29.51,29.28,24,-3,24,0.00
2013-4-26,70.2,52.0,31.5,30.6,17.2,6.3,55,30,9,29.57,29.45,19,4,19,0.00
2013-4-27,73.4,57.6,36.7,39.6,22.5,7.2,78,34,9,29.51,29.22,18,3,18,0.00
2013-4-28,73.6,57.7,47.5,48.7,39.7,30.4,80,54,22,29.22,29.04,15,2,15,0.00
2013-4-29,76.1,62.1,45.9,51.1,34.3,14.9,84,44,10,29.16,29.01,19,5,19,0.00
2013-4-30,88.3,71.2,57.9,44.6,32.5,16.7,52,29,8,29.13,29.01,21,6,21,0.00
2013-5-1,90.7,74.6,58.8,47.3,29.8,15.8,64,26,8,29.28,29.13,20,3,20,0.00
2013-5-2,66.0,52.8,39.7,44.6,29.1,19.2,73,42,18,29.34,29.25,19,5,19,0.00
2013-5-3,66.6,50.5,39.4,49.1,36.5,28.4,80,62,27,29.25,29.07,13,3,13,0.00
2013-5-4,81.0,65.5,54.5,42.1,25.0,6.8,55,26,7,29.19,29.10,17,4,17,0.00
2013-5-5,81.5,62.8,46.2,35.6,23.1,8.6,60,28,7,29.19,29.10,17,3,17,0.00
2013-5-6,82.4,61.4,48.2,33.8,20.4,6.1,52,25,7,29.19,29.10,15,2,15,0.00
2013-5-7,83.8,64.4,44.4,32.4,18.7,7.5,48,22,7,29.22,29.10,12,2,12,0.00
2013-5-8,89.1,69.6,50.2,36.1,22.1,8.6,47,20,6,29.19,29.10,13,2,13,0.00
2013-5-9,88.2,64.7,51.1,54.5,35.5,10.2,81,43,7,29.13,28.95,19,3,19,0.00
2013-5-10,60.6,47.7,39.6,54.7,41.3,34.2,82,79,62,29.10,28.89,19,6,19,0.00
2013-5-11,65.8,47.5,37.2,42.3,29.7,15.4,81,54,19,29.19,28.98,24,4,24,0.00
2013-5-12,61.2,47.0,35.1,18.5,9.4,-0.8,47,24,11,29.28,29.16,20,4,20,0.00
2013-5-13,75.0,54.7,30.2,25.7,10.2,3.7,56,21,8,29.34,29.22,15,2,15,0.00
2013-5-14,97.0,73.0,51.1,36.9,16.9,2.7,26,13,6,29.22,28.83,22,5,22,0.00
2013-5-15,92.7,77.7,69.4,41.5,28.9,9.1,33,19,5,28.98,28.83,18,6,18,0.00
2013-5-16,95.2,76.5,63.0,20.5,14.8,8.6,16,10,6,29.10,29.04,12,-25,12,0.00
2013-5-17,88.5,69.1,59.5,57.7,29.9,11.1,80,30,8,29.19,29.10,18,2,18,0.00
2013-5-18,89.1,70.3,58.3,57.6,38.5,17.2,80,36,8,29.22,29.10,11,2,11,0.00
2013-5-19,93.2,77.2,60.8,52.7,37.9,16.5,69,31,7,29.13,28.92,16,3,16,0.00
2013-5-20,93.4,80.4,70.2,59.7,39.5,16.5,69,31,6,28.98,28.86,22,6,22,0.00
2013-6-12,72.9,67.0,64.0,60.1,58.2,51.4,76,74,48,28.86,28.74,26,-32,26,0.00
2013-6-13,75.9,65.1,54.7,56.5,40.4,24.4,76,46,18,29.16,28.71,19,5,19,0.00
2013-6-14,87.3,67.4,53.1,49.3,33.5,16.7,75,37,8,29.22,29.13,12,3,12,0.00
2013-6-15,79.9,68.3,55.9,52.7,44.6,36.9,64,44,22,29.19,29.01,11,2,11,0.00
2013-6-16,90.0,76.0,66.0,55.6,44.1,24.6,66,36,10,29.04,28.98,19,4,19,0.00
2013-6-17,99.3,79.7,62.6,57.9,33.2,16.3,71,27,6,29.04,28.95,15,2,15,0.00
2013-6-18,80.6,66.9,57.2,49.8,39.0,30.4,73,39,20,29.16,28.98,14,4,14,0.00
2013-6-19,91.2,70.8,56.1,35.6,21.8,8.6,41,19,7,29.25,29.13,10,2,10,0.00
2013-6-20,100.9,77.8,58.8,46.4,27.3,16.3,39,20,5,29.28,29.19,11,1,11,0.00
2013-6-21,91.4,77.0,66.9,53.1,39.0,24.6,56,29,10,29.28,29.22,17,3,17,0.00
2013-6-24,89.4,79.9,70.3,50.9,44.8,38.3,46,31,19,29.19,29.04,40,5,40,0.00
2013-6-25,93.2,78.5,67.8,61.9,51.6,41.9,73,43,18,29.04,28.89,18,-12,18,0.00
2013-6-26,87.4,73.0,63.9,59.7,51.8,41.7,73,50,22,28.98,28.80,15,3,15,0.00
2013-6-27,99.5,78.6,65.8,61.9,44.2,16.2,74,40,5,28.89,28.77,22,2,25,0.00
2013-6-28,93.0,74.9,64.4,55.8,39.6,16.9,70,36,7,28.77,28.69,25,3,25,0.00
2013-6-29,82.2,67.3,63.3,55.6,48.4,36.5,73,53,20,28.80,28.66,13,3,13,0.00
2013-6-30,82.8,69.4,64.0,53.4,39.8,30.4,68,36,16,29.04,28.80,13,3,13,0.00
2013-7-1,84.6,70.7,58.1,46.4,22.6,13.6,53,19,9,29.13,29.01,15,4,15,0.00
2013-7-2,66.0,62.4,60.4,51.3,41.5,27.1,71,48,24,29.16,29.10,10,2,10,0.00
2013-7-3,81.0,67.5,60.8,57.2,47.7,36.1,73,52,22,29.19,29.10,12,1,12,0.00
2013-7-4,86.7,71.6,56.8,56.7,39.8,22.6,73,39,11,29.25,29.16,12,2,12,0.00
2013-7-5,94.3,75.8,57.9,59.4,35.9,16.5,72,33,6,29.19,29.10,10,2,10,0.00
2013-7-6,87.4,74.8,67.6,53.2,45.7,30.4,55,38,13,29.16,29.04,9,1,12,0.00
2013-7-7,92.7,77.8,66.9,58.5,46.3,18.3,71,39,9,29.10,29.04,11,3,11,0.00
2013-7-8,89.1,76.6,68.2,60.3,49.0,39.2,70,40,18,29.19,29.01,14,3,15,0.00
2013-7-9,90.1,79.9,72.9,63.9,53.9,45.5,68,43,23,29.07,28.95,20,2,20,0.00
2013-7-10,89.6,76.6,57.9,66.2,44.2,21.6,70,36,11,29.07,28.89,15,-1,15,0.00
2013-7-11,89.4,71.9,56.7,49.5,31.4,14.9,69,31,8,29.19,29.04,13,2,13,0.00
2013-7-12,96.3,74.6,54.1,54.9,30.2,14.9,71,29,6,29.25,29.10,11,1,11,0.00
2013-7-13,94.5,76.3,56.7,48.2,30.1,16.5,61,25,6,29.22,29.13,10,1,10,0.00
2013-7-14,100.8,81.4,66.2,55.8,37.4,16.2,68,27,5,29.25,29.16,10,2,10,0.00
2013-7-15,101.3,85.2,72.1,58.3,40.8,16.2,61,27,5,29.31,29.22,12,2,13,0.00
2013-7-16,100.4,86.1,72.3,55.2,37.3,16.2,53,24,5,29.34,29.25,11,2,11,0.00
2013-7-17,106.3,86.7,70.2,54.5,34.8,13.5,53,22,4,29.36,29.22,11,2,11,0.00
2013-7-18,100.8,87.1,73.2,53.2,36.0,16.2,44,21,5,29.25,29.01,13,2,13,0.00
2013-7-19,99.7,87.0,74.5,54.3,37.0,16.2,49,23,5,29.01,28.83,21,5,21,0.00
2013-7-20,97.5,83.8,72.0,48.7,30.7,8.8,37,19,6,28.98,28.83,11,2,11,0.00
2013-7-21,99.1,80.1,66.4,46.9,32.3,16.3,47,23,6,29.04,28.92,13,2,13,0.00
2013-7-22,99.5,79.4,68.2,50.7,35.3,16.3,53,26,5,28.95,28.83,12,2,12,0.00
2013-7-23,86.0,72.6,62.4,48.4,31.4,15.6,42,23,11,29.07,28.77,16,5,20,0.00
2013-7-24,79.3,66.0,51.8,32.0,18.4,8.6,37,19,7,29.13,29.04,15,3,15,0.00
2013-7-25,91.8,71.2,51.1,40.1,23.0,6.4,57,22,5,29.22,29.10,10,1,10,0.00
2013-7-26,80.8,67.6,60.6,45.7,33.9,16.3,47,31,10,29.19,28.98,15,3,15,0.00
2013-7-27,74.5,64.3,55.4,53.8,33.1,12.4,71,36,12,29.04,28.95,18,4,18,0.00
2013-7-28,74.7,60.6,50.7,35.6,21.7,6.8,48,26,8,29.16,29.01,15,4,15,0.00
2013-7-29,86.2,68.4,53.8,34.3,24.0,10.4,41,22,7,29.28,29.16,13,2,13,0.00
2013-7-30,83.7,67.5,55.0,39.7,31.2,14.9,49,29,9,29.31,29.16,11,2,11,0.00
2013-7-31,72.9,67.1,61.3,58.8,47.6,37.8,70,51,35,29.16,29.07,9,1,9,0.00
2013-8-1,90.0,72.2,58.5,55.6,31.9,8.6,71,33,6,29.13,29.07,13,3,13,0.00
2013-8-2,91.6,68.7,58.8,57.2,41.4,17.4,70,43,7,29.13,29.01,16,2,16,0.00
2013-8-3,86.5,72.3,58.6,60.8,35.5,8.8,70,36,7,29.25,29.10,14,2,14,0.00
2013-8-4,85.6,69.9,55.0,42.6,27.8,9.0,55,25,8,29.34,29.25,13,1,13,0.00
2013-8-5,79.5,67.0,55.9,39.9,30.8,14.0,39,27,12,29.28,29.04,15,2,15,0.00
2013-8-6,87.8,72.4,63.5,50.0,42.8,28.4,60,37,13,29.07,29.01,8,3,11,0.00
2013-8-7,86.0,71.9,68.7,62.2,54.4,40.8,70,57,21,29.04,28.98,11,2,11,0.00
2013-8-9,95.9,81.4,70.5,40.1,24.6,9.7,32,15,6,29.16,29.10,10,-8,10,0.00
2013-8-10,92.1,75.3,63.7,55.6,28.0,8.6,66,22,7,29.25,29.16,11,1,11,0.00
2013-8-11,94.6,75.1,56.8,36.7,23.9,8.8,36,18,6,29.28,29.16,11,1,11,0.00
2013-8-12,90.9,74.4,64.8,57.4,35.4,16.7,70,31,7,29.19,28.92,23,2,23,0.00
2013-8-13,75.7,65.3,54.9,56.8,29.1,8.6,71,32,8,29.22,28.98,15,3,15,0.00
2013-8-14,81.7,62.9,48.7,34.5,18.8,5.9,50,23,7,29.31,29.22,12,2,12,0.00
2013-8-15,86.5,64.6,46.9,38.8,19.9,8.6,63,24,6,29.28,29.19,9,1,9,0.00
2013-8-16,94.3,72.1,55.2,37.0,22.0,6.8,43,18,5,29.28,29.19,11,1,11,0.00
2013-8-17,89.1,70.5,54.7,37.8,24.2,8.6,46,22,6,29.34,29.22,13,2,13,0.00
2013-8-18,94.5,72.9,55.6,42.4,25.7,8.6,56,23,6,29.31,29.16,9,1,9,0.00
2013-8-19,97.9,75.4,58.3,44.1,26.1,9.0,47,21,6,29.19,29.07,11,1,11,0.00
2013-8-20,92.3,77.5,64.2,43.0,29.0,16.7,44,20,7,29.22,29.10,13,2,13,0.00
2013-8-21,94.8,79.6,64.4,45.5,28.8,16.5,45,20,6,29.19,29.04,13,2,13,0.00
2013-8-22,75.4,70.5,64.0,59.0,44.9,34.9,70,41,23,29.22,29.07,19,3,19,0.00
2013-8-23,95.5,75.0,63.3,57.0,32.1,8.6,70,30,6,29.25,29.16,12,2,12,0.00
2013-8-24,93.9,74.0,57.4,34.5,21.2,8.6,35,17,6,29.34,29.25,13,1,13,0.00
2013-8-25,94.3,77.3,62.2,33.6,23.2,8.8,34,16,6,29.34,29.22,13,2,13,0.00
2013-8-26,95.4,78.9,66.0,44.1,28.9,16.5,34,19,6,29.28,29.10,13,2,13,0.00
2013-8-27,99.3,84.0,72.0,45.0,31.7,16.3,37,19,5,29.10,28.98,17,4,17,0.00
2013-8-28,85.6,76.4,69.6,59.5,39.1,16.7,70,31,9,29.16,28.95,11,4,14,0.00
2013-8-29,99.1,79.2,67.6,63.1,37.4,16.5,70,34,5,29.22,29.13,9,1,9,0.00
2013-8-30,100.8,80.4,68.5,50.2,33.7,16.2,45,25,5,29.13,28.89,26,3,26,0.00
2013-8-31,87.6,71.5,67.8,65.7,48.0,28.2,70,45,13,28.95,28.86,14,1,14,0.00
2013-9-1,92.5,76.4,66.9,62.4,41.7,16.7,70,39,7,28.89,28.80,13,2,13,0.00
2013-9-2,88.3,72.5,60.1,55.4,31.3,10.0,63,27,7,29.04,28.83,15,3,15,0.00
2013-9-3,85.1,66.2,55.0,33.3,23.0,8.6,42,23,6,29.16,29.01,10,2,10,0.00
2013-9-4,90.5,70.4,52.3,52.0,23.2,8.1,70,25,6,29.22,29.10,12,2,12,0.00
2013-9-5,88.7,70.1,58.1,35.6,19.9,6.3,35,17,6,29.34,29.19,11,2,11,0.00
2013-9-6,92.3,71.4,55.8,29.8,14.4,6.4,24,12,6,29.34,29.13,11,2,11,0.00
2013-9-7,94.1,75.6,63.0,40.6,24.4,8.8,41,19,6,29.13,29.01,13,2,13,0.00
2013-9-8,86.5,73.8,66.9,43.9,31.5,16.7,42,24,8,29.13,29.04,13,3,13,0.00
2013-9-9,99.0,80.8,64.9,43.0,27.0,16.2,43,18,5,29.13,28.95,15,4,15,0.00
2013-9-10,101.5,85.5,71.8,42.3,23.2,8.8,33,13,5,29.19,29.07,19,4,19,0.00
2013-9-11,99.5,80.1,70.0,43.5,32.1,8.8,35,22,5,29.22,29.10,18,3,18,0.00
2013-9-12,90.3,73.7,62.4,47.5,27.1,8.8,47,22,5,29.19,29.01,20,4,20,0.00
2013-9-13,70.5,59.7,45.5,24.6,12.7,3.7,37,17,9,29.28,29.19,23,4,23,0.00
2013-9-14,78.8,58.9,42.1,32.9,12.7,2.7,59,21,8,29.34,29.22,10,-5,10,0.00
2013-9-15,69.1,58.4,50.0,40.6,17.1,2.7,53,23,10,29.31,29.16,9,1,9,0.00
2013-9-16,73.0,60.1,50.9,45.1,24.7,6.8,67,32,9,29.45,29.31,15,3,15,0.00
2013-9-17,80.6,60.4,45.9,28.6,15.4,6.1,48,21,7,29.48,29.28,11,2,11,0.00
2013-9-18,86.7,68.4,57.6,57.6,23.8,6.1,70,24,6,29.31,29.10,16,2,16,0.00
2013-9-19,74.3,67.4,64.9,55.8,50.2,38.1,70,56,30,29.16,29.10,16,3,16,0.00
2013-9-20,75.2,69.6,67.6,46.2,42.0,25.2,46,37,16,29.04,28.95,10,4,10,0.00
2013-9-21,70.0,56.8,46.9,23.7,13.5,6.1,38,20,9,29.10,29.04,15,-18,15,0.00
2013-9-22,75.4,58.2,46.6,30.6,16.2,3.7,48,23,8,29.22,29.10,11,2,11,0.00
2013-9-23,78.6,58.8,42.8,22.5,13.5,4.8,42,20,8,29.28,29.19,12,2,12,0.00
2013-9-24,80.2,58.5,45.9,25.2,14.3,3.9,43,21,7,29.25,29.10,11,2,11,0.00
2013-9-25,86.4,63.1,50.2,31.5,18.9,6.8,41,22,6,29.13,29.04,10,2,10,0.00
2013-9-26,88.5,64.9,50.0,35.8,20.6,6.8,52,23,5,29.25,29.10,9,1,9,0.00
2013-9-27,89.1,68.0,50.0,23.5,11.3,3.9,27,12,6,29.34,29.25,11,2,11,0.00
2013-9-28,86.5,69.6,51.8,31.3,16.4,7.7,42,16,6,29.28,29.13,17,4,17,0.00
2013-9-29,71.6,63.0,57.0,42.6,27.0,8.6,50,31,9,29.19,29.13,15,4,15,0.00
2013-11-5,56.5,53.6,50.7,28.8,13.4,3.7,41,21,13,29.45,29.19,17,-5,17,0.09
2013-11-6,56.7,49.3,37.0,34.5,21.3,-4.4,47,35,12,29.31,28.98,24,7,24,0.00
2013-11-7,50.4,37.8,29.5,10.8,0.8,-6.5,41,22,14,29.39,29.31,15,4,15,0.00
2013-11-8,52.2,40.4,27.9,13.8,4.0,-3.5,48,24,14,29.45,29.16,18,4,18,0.00
2013-11-9,63.0,50.7,43.0,7.9,2.6,-1.3,15,14,11,29.19,29.01,26,8,26,0.00
2013-11-10,54.3,41.8,34.3,4.6,-1.9,-8.7,17,15,13,29.39,29.19,27,5,27,0.00
2013-11-11,46.9,38.5,29.8,18.1,2.8,-8.5,44,24,14,29.54,29.19,15,5,15,0.00
2013-11-12,39.4,28.9,21.0,8.2,-3.9,-16.1,41,25,14,29.75,29.54,15,3,15,0.00
2013-11-13,42.4,29.6,17.8,-0.4,-7.4,-14.3,35,21,13,29.69,29.31,19,6,19,0.00
2013-11-14,53.1,39.6,28.8,4.1,-4.2,-13.0,16,15,13,29.31,29.10,20,7,20,0.00
2013-11-15,49.8,42.8,36.3,2.7,-1.6,-8.3,18,15,14,29.19,29.10,15,4,15,0.00
2013-11-16,60.3,51.2,40.6,34.5,22.7,3.9,41,33,21,29.13,28.83,23,8,23,0.00
2013-11-17,65.8,62.0,59.7,39.9,35.9,32.5,46,38,29,28.83,28.45,44,9,44,0.00